createdAt,value
2023-03-29T00:00:09.050Z,4
2023-03-29T00:15:42.990Z,4.1
2023-03-29T00:31:17.160Z,3.9
2023-03-29T00:46:51.630Z,3.9
2023-03-29T01:02:25.869Z,4.1
2023-03-29T01:18:00.195Z,4.1
2023-03-29T01:33:34.218Z,4.2
2023-03-29T01:49:08.161Z,4.1
2023-03-29T02:04:42.138Z,4.2
2023-03-29T02:20:16.244Z,4.2
2023-03-29T02:35:50.397Z,4.2
2023-03-29T02:51:24.407Z,4
2023-03-29T03:06:58.366Z,4
2023-03-29T03:22:32.304Z,4
2023-03-29T03:38:06.253Z,4
2023-03-29T03:53:40.284Z,4.4
2023-03-29T04:09:14.232Z,4.7
2023-03-29T04:24:48.169Z,4.8
2023-03-29T04:40:22.199Z,5
2023-03-29T04:55:56.149Z,5
2023-03-29T05:11:30.307Z,5
2023-03-29T05:27:04.250Z,5
2023-03-29T05:42:38.180Z,5.3
2023-03-29T05:58:12.121Z,5.3
2023-03-29T06:13:46.108Z,5.5
2023-03-29T06:29:20.129Z,5.6
2023-03-29T06:44:54.145Z,5.8
2023-03-29T07:00:28.519Z,6.1
2023-03-29T07:16:02.783Z,6.4
2023-03-29T07:31:36.953Z,6.9
2023-03-29T07:47:11.019Z,7.6
2023-03-29T08:02:45.433Z,8.7
2023-03-29T08:18:19.719Z,9.5
2023-03-29T08:33:53.725Z,10.1
2023-03-29T08:49:27.978Z,10.6
2023-03-29T09:05:02.018Z,11.3
2023-03-29T09:20:36.097Z,11.9
2023-03-29T09:36:10.375Z,12.2
2023-03-29T09:51:44.456Z,13.1
2023-03-29T10:07:18.750Z,13.9
2023-03-29T10:22:52.815Z,13.9
2023-03-29T10:38:26.855Z,14
2023-03-29T10:54:01.040Z,14.4
2023-03-29T11:09:35.128Z,14.1
2023-03-29T11:25:09.219Z,14.3
2023-03-29T11:40:43.341Z,14.6
2023-03-29T11:56:17.455Z,14.9
2023-03-29T12:11:51.613Z,15.8
2023-03-29T12:27:25.740Z,16.1
2023-03-29T12:42:59.849Z,16
2023-03-29T12:58:34.057Z,16.1
2023-03-29T13:14:08.177Z,16.4
2023-03-29T13:29:42.393Z,16
2023-03-29T13:45:16.527Z,15.6
2023-03-29T14:00:50.869Z,14.9
2023-03-29T14:16:25.198Z,14.8
2023-03-29T14:31:59.540Z,15
2023-03-29T14:47:33.919Z,15.6
2023-03-29T15:03:08.736Z,14.9
2023-03-29T15:18:43.038Z,14.8
2023-03-29T15:34:17.319Z,14.8
2023-03-29T15:49:51.680Z,15
2023-03-29T16:05:25.810Z,14.7
2023-03-29T16:20:59.896Z,14.2
2023-03-29T16:36:34.301Z,14.1
2023-03-29T16:52:08.390Z,13.9
2023-03-29T17:07:42.696Z,13.5
2023-03-29T17:23:16.814Z,13.3
2023-03-29T17:38:50.925Z,13.1
2023-03-29T17:54:25.008Z,12.7
2023-03-29T18:09:59.193Z,12.5
2023-03-29T18:25:33.275Z,12.2
2023-03-29T18:41:07.347Z,12.1
2023-03-29T18:56:41.629Z,12.1
2023-03-29T19:12:15.752Z,12
2023-03-29T19:27:50.235Z,11.7
2023-03-29T19:43:24.258Z,11.5
2023-03-29T19:58:58.326Z,11.4
2023-03-29T20:14:32.383Z,11.1
2023-03-29T20:30:06.522Z,11.1
2023-03-29T20:45:55.429Z,11.1
2023-03-29T21:01:29.994Z,11
2023-03-29T21:17:04.080Z,11.1
2023-03-29T21:32:38.356Z,11.1
2023-03-29T21:48:12.500Z,11.1
2023-03-29T22:03:46.642Z,11.1
2023-03-29T22:19:20.742Z,11.1
2023-03-29T22:34:55.091Z,11
2023-03-29T22:50:29.209Z,10.9
2023-03-29T23:06:03.358Z,11
2023-03-29T23:21:37.590Z,11
2023-03-29T23:37:11.632Z,11
2023-03-29T23:52:45.662Z,11
